createdAt,value
2017-11-17T00:00:44.308Z,9.37
2017-11-17T00:02:37.124Z,9.38
2017-11-17T00:03:37.039Z,9.37
2017-11-17T00:05:30.310Z,9.35
2017-11-17T00:06:30.242Z,9.38
2017-11-17T00:08:23.572Z,9.32
2017-11-17T00:09:23.488Z,9.38
2017-11-17T00:11:16.763Z,9.32
2017-11-17T00:12:16.688Z,9.39
2017-11-17T00:14:09.550Z,9.32
2017-11-17T00:15:09.526Z,9.38
2017-11-17T00:17:02.718Z,9.48
2017-11-17T00:18:02.633Z,9.45
2017-11-17T00:19:55.892Z,9.50
2017-11-17T00:20:55.822Z,9.37
2017-11-17T00:22:49.106Z,9.42
2017-11-17T00:23:49.018Z,9.34
2017-11-17T00:25:42.280Z,9.45
2017-11-17T00:26:42.218Z,9.41
2017-11-17T00:28:35.489Z,9.44
2017-11-17T00:29:35.392Z,9.42
2017-11-17T00:31:28.653Z,9.39
2017-11-17T00:32:28.586Z,9.30
2017-11-17T00:34:21.868Z,9.45
2017-11-17T00:35:21.777Z,9.50
2017-11-17T00:37:15.056Z,9.48
2017-11-17T00:38:14.970Z,9.45
2017-11-17T00:40:08.230Z,9.53
2017-11-17T00:41:08.162Z,9.47
2017-11-17T00:43:01.430Z,9.44
2017-11-17T00:44:01.354Z,9.42
2017-11-17T00:45:54.606Z,9.45
2017-11-17T00:46:54.537Z,9.38
2017-11-17T00:48:47.818Z,9.48
2017-11-17T00:49:47.731Z,9.44
2017-11-17T00:51:41.032Z,9.44
2017-11-17T00:52:40.962Z,9.50
2017-11-17T00:54:34.242Z,9.53
2017-11-17T00:55:34.158Z,9.48
2017-11-17T00:57:27.443Z,9.53
2017-11-17T00:58:27.352Z,9.44
2017-11-17T01:00:20.612Z,9.42
2017-11-17T01:01:20.547Z,9.53
2017-11-17T01:03:13.828Z,9.41
2017-11-17T01:04:13.742Z,9.50
2017-11-17T01:06:06.999Z,9.52
2017-11-17T01:07:06.930Z,9.45
2017-11-17T01:09:00.239Z,9.44
2017-11-17T01:10:00.114Z,9.45
2017-11-17T01:11:53.377Z,9.50
2017-11-17T01:12:53.308Z,9.48
2017-11-17T01:14:46.586Z,9.52
2017-11-17T01:15:46.501Z,9.50
2017-11-17T01:17:39.788Z,9.53
2017-11-17T01:18:39.690Z,9.44
2017-11-17T01:20:32.944Z,9.48
2017-11-17T01:21:32.874Z,9.50
2017-11-17T01:23:26.153Z,9.50
2017-11-17T01:24:26.072Z,9.50
2017-11-17T01:26:19.374Z,9.42
2017-11-17T01:27:19.363Z,9.52
2017-11-17T01:29:12.823Z,9.47
2017-11-17T01:30:12.563Z,9.48
2017-11-17T01:32:05.845Z,9.37
2017-11-17T01:33:05.846Z,9.44
2017-11-17T01:34:59.985Z,9.30
2017-11-17T01:35:59.845Z,9.44
2017-11-17T01:37:53.182Z,9.44
2017-11-17T01:38:53.029Z,9.39
2017-11-17T01:40:46.376Z,9.44
2017-11-17T01:41:46.309Z,9.29
2017-11-17T01:43:39.636Z,9.35
2017-11-17T01:44:39.551Z,9.42
2017-11-17T01:46:32.759Z,9.38
2017-11-17T01:47:32.692Z,9.37
2017-11-17T01:49:25.967Z,9.41
2017-11-17T01:50:25.876Z,9.39
2017-11-17T01:52:19.139Z,9.37
2017-11-17T01:53:19.075Z,9.39
2017-11-17T01:55:12.393Z,9.34
2017-11-17T01:56:12.306Z,9.38
2017-11-17T01:58:05.584Z,9.35
2017-11-17T01:59:05.495Z,9.32
2017-11-17T02:00:58.760Z,9.30
2017-11-17T02:01:58.695Z,9.21
2017-11-17T02:03:51.974Z,9.23
2017-11-17T02:04:51.886Z,9.30
2017-11-17T02:06:45.146Z,9.29
2017-11-17T02:07:45.079Z,9.30
2017-11-17T02:09:38.395Z,9.24
2017-11-17T02:10:38.302Z,9.23
2017-11-17T02:12:31.572Z,9.17
2017-11-17T02:13:31.500Z,9.24
2017-11-17T02:15:24.779Z,9.17
2017-11-17T02:16:24.694Z,9.21
2017-11-17T02:18:17.977Z,9.12
2017-11-17T02:19:17.887Z,9.04
2017-11-17T02:21:11.147Z,9.03
2017-11-17T02:22:11.080Z,9.04
2017-11-17T02:24:04.397Z,9.08
2017-11-17T02:25:04.302Z,8.94
2017-11-17T02:26:57.568Z,8.87
2017-11-17T02:27:57.499Z,8.92
2017-11-17T02:29:50.780Z,8.94
2017-11-17T02:30:50.695Z,8.87
2017-11-17T02:32:43.958Z,9.00
2017-11-17T02:33:43.885Z,8.97
2017-11-17T02:35:37.165Z,8.82
2017-11-17T02:36:37.076Z,8.89
2017-11-17T02:38:30.451Z,8.90
2017-11-17T02:39:30.302Z,8.87
2017-11-17T02:41:23.563Z,8.98
2017-11-17T02:42:23.547Z,8.94
2017-11-17T02:44:16.773Z,8.82
2017-11-17T02:45:16.689Z,8.86
2017-11-17T02:47:09.950Z,8.85
2017-11-17T02:48:09.881Z,8.79
2017-11-17T02:50:03.201Z,8.86
2017-11-17T02:51:03.070Z,8.82
2017-11-17T02:52:56.404Z,8.85
2017-11-17T02:53:56.302Z,8.74
2017-11-17T02:55:50.554Z,8.71
2017-11-17T02:56:50.484Z,8.77
2017-11-17T02:58:43.837Z,8.80
2017-11-17T02:59:43.748Z,8.72
2017-11-17T03:01:37.008Z,8.69
2017-11-17T03:02:36.937Z,8.67
2017-11-17T03:04:30.220Z,8.65
2017-11-17T03:05:30.129Z,8.67
2017-11-17T03:07:23.389Z,8.65
2017-11-17T03:08:23.322Z,8.68
2017-11-17T03:10:16.620Z,8.65
2017-11-17T03:11:16.530Z,8.62
2017-11-17T03:13:09.872Z,8.57
2017-11-17T03:14:09.780Z,8.52
2017-11-17T03:16:02.575Z,8.47
2017-11-17T03:17:02.503Z,8.57
2017-11-17T03:18:55.373Z,8.43
2017-11-17T03:19:55.225Z,8.46
2017-11-17T03:21:48.482Z,8.43
2017-11-17T03:22:48.414Z,8.42
2017-11-17T03:24:41.690Z,8.36
2017-11-17T03:25:41.603Z,8.36
2017-11-17T03:27:34.865Z,8.34
2017-11-17T03:28:34.795Z,8.31
2017-11-17T03:30:28.082Z,8.32
2017-11-17T03:31:27.983Z,8.19
2017-11-17T03:33:21.266Z,8.21
2017-11-17T03:34:21.175Z,8.17
2017-11-17T03:36:14.433Z,8.06
2017-11-17T03:37:14.365Z,8.09
2017-11-17T03:39:07.635Z,8.09
2017-11-17T03:40:07.547Z,8.07
2017-11-17T03:42:00.803Z,8.01
2017-11-17T03:43:00.734Z,7.99
2017-11-17T03:44:54.084Z,7.98
2017-11-17T03:45:53.996Z,7.92
2017-11-17T03:47:48.244Z,7.99
2017-11-17T03:48:48.170Z,7.89
2017-11-17T03:50:41.461Z,7.74
2017-11-17T03:51:41.363Z,7.78
2017-11-17T03:53:34.639Z,7.77
2017-11-17T03:54:34.553Z,7.75
2017-11-17T03:56:27.811Z,7.71
2017-11-17T03:57:27.741Z,7.67
2017-11-17T03:59:21.023Z,7.63
2017-11-17T04:00:20.922Z,7.59
2017-11-17T04:02:14.179Z,7.55
2017-11-17T04:03:14.111Z,7.56
2017-11-17T04:05:07.413Z,7.58
2017-11-17T04:06:07.325Z,7.54
2017-11-17T04:08:00.585Z,7.51
2017-11-17T04:09:00.514Z,7.48
2017-11-17T04:10:53.794Z,7.51
2017-11-17T04:11:53.705Z,7.41
2017-11-17T04:13:46.981Z,7.45
2017-11-17T04:14:46.894Z,7.40
2017-11-17T04:16:40.151Z,7.39
2017-11-17T04:17:40.081Z,7.39
2017-11-17T04:19:33.388Z,7.40
2017-11-17T04:20:33.302Z,7.36
2017-11-17T04:22:26.558Z,7.37
2017-11-17T04:23:26.490Z,7.33
2017-11-17T04:25:19.767Z,7.29
2017-11-17T04:26:19.678Z,7.18
2017-11-17T04:28:12.937Z,7.23
2017-11-17T04:29:12.866Z,7.12
2017-11-17T04:31:06.141Z,7.05
2017-11-17T04:32:06.055Z,7.08
2017-11-17T04:33:59.389Z,7.04
2017-11-17T04:34:59.301Z,7.03
2017-11-17T04:36:52.557Z,7.05
2017-11-17T04:37:52.491Z,7.05
2017-11-17T04:39:45.756Z,7.09
2017-11-17T04:40:45.671Z,6.93
2017-11-17T04:42:38.928Z,6.95
2017-11-17T04:43:38.859Z,7.00
2017-11-17T04:45:32.136Z,6.95
2017-11-17T04:46:32.048Z,6.88
2017-11-17T04:48:25.375Z,6.88
2017-11-17T04:49:25.300Z,6.94
2017-11-17T04:51:18.575Z,6.91
2017-11-17T04:52:18.490Z,6.83
2017-11-17T04:54:11.772Z,6.80
2017-11-17T04:55:11.681Z,6.82
2017-11-17T04:57:04.939Z,6.90
2017-11-17T04:58:04.902Z,6.80
2017-11-17T04:59:58.145Z,6.68
2017-11-17T05:00:58.058Z,6.79
2017-11-17T05:02:51.373Z,6.67
2017-11-17T05:03:51.304Z,6.72
2017-11-17T05:05:44.576Z,6.62
2017-11-17T05:06:44.490Z,6.57
2017-11-17T05:08:37.756Z,6.54
2017-11-17T05:09:37.687Z,6.55
2017-11-17T05:11:31.051Z,6.49
2017-11-17T05:12:30.873Z,6.46
2017-11-17T05:14:24.149Z,6.57
2017-11-17T05:15:24.061Z,6.46
2017-11-17T05:17:17.372Z,6.36
2017-11-17T05:18:17.302Z,6.42
2017-11-17T05:20:10.604Z,6.31
2017-11-17T05:21:10.489Z,6.34
2017-11-17T05:23:03.747Z,6.28
2017-11-17T05:24:03.677Z,6.14
2017-11-17T05:25:56.953Z,6.21
2017-11-17T05:26:56.865Z,6.13
2017-11-17T05:28:50.121Z,6.14
2017-11-17T05:29:50.052Z,6.09
2017-11-17T05:31:43.391Z,6.07
2017-11-17T05:32:43.303Z,6.05
2017-11-17T05:34:36.574Z,6.09
2017-11-17T05:35:36.490Z,6.05
2017-11-17T05:37:30.748Z,6.09
2017-11-17T05:38:30.671Z,6.09
2017-11-17T05:40:23.950Z,6.00
2017-11-17T05:41:23.858Z,6.00
2017-11-17T05:43:17.117Z,5.99
2017-11-17T05:44:17.048Z,5.92
2017-11-17T05:46:10.326Z,5.85
2017-11-17T05:47:10.237Z,5.84
2017-11-17T05:49:03.485Z,5.78
2017-11-17T05:50:03.415Z,5.75
2017-11-17T05:51:56.705Z,5.75
2017-11-17T05:52:56.602Z,5.80
2017-11-17T05:54:49.878Z,5.77
2017-11-17T05:55:49.790Z,5.81
2017-11-17T05:57:43.045Z,5.69
2017-11-17T05:58:42.970Z,5.77
2017-11-17T06:00:36.250Z,5.85
2017-11-17T06:01:36.160Z,5.77
2017-11-17T06:03:29.420Z,5.69
2017-11-17T06:04:29.349Z,5.73
2017-11-17T06:06:22.640Z,5.72
2017-11-17T06:07:22.554Z,5.72
2017-11-17T06:09:15.796Z,5.77
2017-11-17T06:10:15.725Z,5.69
2017-11-17T06:12:09.004Z,5.77
2017-11-17T06:13:08.913Z,5.73
2017-11-17T06:15:02.188Z,5.67
2017-11-17T06:16:02.100Z,5.69
2017-11-17T06:17:55.357Z,5.70
2017-11-17T06:18:55.303Z,5.81
2017-11-17T06:20:48.559Z,5.69
2017-11-17T06:21:48.472Z,5.73
2017-11-17T06:23:41.727Z,5.66
2017-11-17T06:24:41.665Z,5.69
2017-11-17T06:26:34.931Z,5.59
2017-11-17T06:27:34.858Z,5.60
2017-11-17T06:29:28.100Z,5.55
2017-11-17T06:30:28.032Z,5.62
2017-11-17T06:32:21.311Z,5.54
2017-11-17T06:33:21.222Z,5.55
2017-11-17T06:35:14.543Z,5.54
2017-11-17T06:36:14.406Z,5.49
2017-11-17T06:38:07.688Z,5.42
2017-11-17T06:39:07.612Z,5.55
2017-11-17T06:41:00.888Z,5.51
2017-11-17T06:42:00.801Z,5.60
2017-11-17T06:43:54.054Z,5.52
2017-11-17T06:44:53.984Z,5.54
2017-11-17T06:46:47.257Z,5.46
2017-11-17T06:47:47.170Z,5.44
2017-11-17T06:49:40.440Z,5.41
2017-11-17T06:50:40.347Z,5.54
2017-11-17T06:52:33.625Z,5.45
2017-11-17T06:53:33.536Z,5.48
2017-11-17T06:55:26.875Z,5.49
2017-11-17T06:56:26.721Z,5.39
2017-11-17T06:58:19.974Z,5.37
2017-11-17T06:59:19.907Z,5.42
2017-11-17T07:01:13.186Z,5.45
2017-11-17T07:02:13.091Z,5.34
2017-11-17T07:04:06.374Z,5.34
2017-11-17T07:05:06.302Z,5.45
2017-11-17T07:06:59.580Z,5.39
2017-11-17T07:07:59.489Z,5.24
2017-11-17T07:09:52.749Z,5.36
2017-11-17T07:10:52.683Z,5.34
2017-11-17T07:12:45.952Z,5.33
2017-11-17T07:13:45.863Z,5.39
2017-11-17T07:15:39.131Z,5.34
2017-11-17T07:16:39.044Z,5.36
2017-11-17T07:18:32.373Z,5.30
2017-11-17T07:19:32.301Z,5.27
2017-11-17T07:21:25.575Z,5.30
2017-11-17T07:22:25.488Z,5.37
2017-11-17T07:24:18.742Z,5.28
2017-11-17T07:25:18.674Z,5.33
2017-11-17T07:27:11.946Z,5.31
2017-11-17T07:28:11.858Z,5.41
2017-11-17T07:30:05.116Z,5.33
2017-11-17T07:31:05.049Z,5.44
2017-11-17T07:32:58.391Z,5.45
2017-11-17T07:33:58.306Z,5.41
2017-11-17T07:35:51.576Z,5.42
2017-11-17T07:36:51.486Z,5.44
2017-11-17T07:38:44.742Z,5.39
2017-11-17T07:39:44.674Z,5.51
2017-11-17T07:41:37.946Z,5.54
2017-11-17T07:42:37.855Z,5.49
2017-11-17T07:44:31.116Z,5.57
2017-11-17T07:45:31.044Z,5.57
2017-11-17T07:47:24.399Z,5.57
2017-11-17T07:48:24.301Z,5.62
2017-11-17T07:50:17.557Z,5.70
2017-11-17T07:51:17.480Z,5.81
2017-11-17T07:53:10.746Z,5.98
2017-11-17T07:54:10.658Z,6.00
2017-11-17T07:56:03.918Z,6.15
2017-11-17T07:57:03.829Z,6.40
2017-11-17T07:58:57.153Z,6.39
2017-11-17T07:59:57.006Z,6.52
2017-11-17T08:01:50.273Z,7.03
2017-11-17T08:02:50.181Z,7.41
2017-11-17T08:04:43.424Z,7.73
2017-11-17T08:05:43.356Z,7.59
2017-11-17T08:07:36.632Z,8.17
2017-11-17T08:08:36.547Z,8.52
2017-11-17T08:10:29.810Z,9.03
2017-11-17T08:11:29.726Z,9.20
2017-11-17T08:13:22.972Z,9.35
2017-11-17T08:14:22.907Z,9.57
2017-11-17T08:16:17.169Z,9.57
2017-11-17T08:17:17.082Z,9.70
2017-11-17T08:19:10.376Z,10.00
2017-11-17T08:20:10.310Z,10.02
2017-11-17T08:22:03.589Z,10.26
2017-11-17T08:23:03.503Z,10.44
2017-11-17T08:24:57.754Z,10.61
2017-11-17T08:25:57.697Z,10.72
2017-11-17T08:27:50.956Z,10.73
2017-11-17T08:28:50.877Z,10.77
2017-11-17T08:30:44.155Z,10.91
2017-11-17T08:31:44.070Z,10.84
2017-11-17T08:33:37.326Z,10.44
2017-11-17T08:34:37.259Z,10.49
2017-11-17T08:36:30.533Z,10.73
2017-11-17T08:37:30.448Z,10.75
2017-11-17T08:39:23.709Z,10.03
2017-11-17T08:40:23.646Z,10.10
2017-11-17T08:42:16.918Z,10.52
2017-11-17T08:43:16.835Z,10.32
2017-11-17T08:45:10.091Z,9.48
2017-11-17T08:46:10.025Z,9.37
2017-11-17T08:48:03.302Z,8.94
2017-11-17T08:49:03.217Z,9.27
2017-11-17T08:50:56.495Z,9.63
2017-11-17T08:51:56.409Z,9.52
2017-11-17T08:53:49.668Z,10.36
2017-11-17T08:54:49.591Z,10.73
2017-11-17T08:56:42.876Z,10.75
2017-11-17T08:57:42.791Z,10.52
2017-11-17T08:59:36.043Z,9.88
2017-11-17T09:00:35.987Z,9.62
2017-11-17T09:02:29.270Z,10.00
2017-11-17T09:03:29.185Z,10.49
2017-11-17T09:05:22.455Z,10.23
2017-11-17T09:06:22.392Z,10.11
2017-11-17T09:08:15.673Z,10.44
2017-11-17T09:09:15.586Z,10.39
2017-11-17T09:11:08.891Z,10.25
2017-11-17T09:12:08.782Z,10.75
2017-11-17T09:14:02.045Z,10.90
2017-11-17T09:15:01.982Z,11.03
2017-11-17T09:16:55.257Z,11.03
2017-11-17T09:17:55.176Z,11.03
2017-11-17T09:19:48.601Z,11.53
2017-11-17T09:20:48.543Z,11.38
2017-11-17T09:22:41.823Z,11.88
2017-11-17T09:23:41.740Z,12.22
2017-11-17T09:25:35.006Z,12.63
2017-11-17T09:26:34.941Z,12.86
2017-11-17T09:28:28.235Z,12.98
2017-11-17T09:29:28.153Z,12.84
2017-11-17T09:31:21.439Z,12.92
2017-11-17T09:32:21.362Z,13.13
2017-11-17T09:34:14.624Z,12.99
2017-11-17T09:35:14.561Z,12.83
2017-11-17T09:37:07.847Z,12.88
2017-11-17T09:38:07.765Z,12.98
2017-11-17T09:40:01.044Z,13.87
2017-11-17T09:41:00.978Z,14.30
2017-11-17T09:42:54.264Z,14.21
2017-11-17T09:43:54.188Z,13.17
2017-11-17T09:45:47.449Z,12.51
2017-11-17T09:46:47.389Z,12.81
2017-11-17T09:48:41.670Z,13.37
2017-11-17T09:49:41.592Z,12.98
2017-11-17T09:51:34.859Z,13.35
2017-11-17T09:52:34.794Z,13.58
2017-11-17T09:54:28.090Z,13.95
2017-11-17T09:55:28.008Z,13.83
2017-11-17T09:57:21.299Z,13.60
2017-11-17T09:58:21.223Z,13.66
2017-11-17T10:00:14.498Z,13.63
2017-11-17T10:01:14.437Z,13.17
2017-11-17T10:03:07.733Z,13.02
2017-11-17T10:04:07.652Z,12.83
2017-11-17T10:06:00.924Z,11.98
2017-11-17T10:07:00.862Z,11.75
2017-11-17T10:08:54.159Z,11.24
2017-11-17T10:09:54.078Z,10.88
2017-11-17T10:11:47.360Z,10.75
2017-11-17T10:12:47.291Z,10.72
2017-11-17T10:14:40.573Z,10.72
2017-11-17T10:15:40.493Z,10.95
2017-11-17T10:17:33.791Z,10.95
2017-11-17T10:18:33.710Z,11.15
2017-11-17T10:20:26.987Z,11.06
2017-11-17T10:21:26.927Z,11.18
2017-11-17T10:23:20.223Z,10.76
2017-11-17T10:24:20.144Z,10.59
2017-11-17T10:26:13.409Z,10.49
2017-11-17T10:27:13.346Z,10.63
2017-11-17T10:29:06.632Z,10.90
2017-11-17T10:30:06.580Z,11.09
2017-11-17T10:31:59.821Z,11.12
2017-11-17T10:32:59.761Z,11.34
2017-11-17T10:34:53.040Z,11.39
2017-11-17T10:35:52.962Z,11.38
2017-11-17T10:37:46.244Z,10.94
2017-11-17T10:38:46.164Z,11.21
2017-11-17T10:40:39.960Z,11.98
2017-11-17T10:41:39.360Z,12.18
2017-11-17T10:43:32.647Z,12.36
2017-11-17T10:44:32.561Z,12.28
2017-11-17T10:46:25.824Z,11.73
2017-11-17T10:47:25.761Z,11.66
2017-11-17T10:49:19.049Z,11.34
2017-11-17T10:50:18.955Z,11.45
2017-11-17T10:52:12.222Z,11.33
2017-11-17T10:53:12.157Z,11.12
2017-11-17T10:55:05.433Z,10.85
2017-11-17T10:56:05.353Z,10.94
2017-11-17T10:57:58.629Z,10.35
2017-11-17T10:58:58.549Z,10.25
2017-11-17T11:00:51.840Z,10.23
2017-11-17T11:01:51.752Z,10.33
2017-11-17T11:03:45.028Z,10.25
2017-11-17T11:04:44.947Z,10.17
2017-11-17T11:06:38.202Z,10.31
2017-11-17T11:07:38.133Z,10.33
2017-11-17T11:09:31.413Z,10.49
2017-11-17T11:10:31.328Z,10.47
2017-11-17T11:12:24.591Z,10.63
2017-11-17T11:13:24.527Z,10.59
2017-11-17T11:15:17.803Z,10.61
2017-11-17T11:16:17.723Z,10.73
2017-11-17T11:18:11.061Z,10.44
2017-11-17T11:19:10.916Z,10.52
2017-11-17T11:21:04.207Z,10.52
2017-11-17T11:22:04.109Z,10.54
2017-11-17T11:23:57.382Z,10.33
2017-11-17T11:24:57.298Z,10.31
2017-11-17T11:26:50.566Z,10.28
2017-11-17T11:27:50.499Z,10.36
2017-11-17T11:29:43.783Z,10.59
2017-11-17T11:30:43.692Z,10.54
2017-11-17T11:32:36.945Z,10.44
2017-11-17T11:33:36.876Z,10.42
2017-11-17T11:35:30.268Z,10.65
2017-11-17T11:36:30.075Z,10.67
2017-11-17T11:38:23.393Z,10.52
2017-11-17T11:39:23.308Z,10.59
2017-11-17T11:41:16.567Z,10.69
2017-11-17T11:42:16.497Z,10.76
2017-11-17T11:44:09.801Z,10.94
2017-11-17T11:45:09.717Z,10.79
2017-11-17T11:47:02.971Z,10.33
2017-11-17T11:48:02.904Z,10.26
2017-11-17T11:49:56.175Z,10.44
2017-11-17T11:50:56.087Z,10.41
2017-11-17T11:52:49.374Z,10.31
2017-11-17T11:53:49.306Z,10.32
2017-11-17T11:55:42.578Z,10.49
2017-11-17T11:56:42.492Z,10.55
2017-11-17T11:58:35.905Z,10.66
2017-11-17T11:59:35.681Z,10.67
2017-11-17T12:01:28.934Z,10.70
2017-11-17T12:02:28.888Z,10.67
2017-11-17T12:04:22.151Z,10.66
2017-11-17T12:05:22.068Z,10.73
2017-11-17T12:07:15.376Z,10.72
2017-11-17T12:08:15.306Z,10.54
2017-11-17T12:10:08.581Z,10.72
2017-11-17T12:11:08.494Z,10.76
2017-11-17T12:13:01.746Z,10.54
2017-11-17T12:14:01.683Z,10.54
2017-11-17T12:15:54.956Z,10.54
2017-11-17T12:16:54.866Z,10.42
2017-11-17T12:18:48.144Z,10.38
2017-11-17T12:19:48.076Z,10.46
2017-11-17T12:21:41.318Z,10.55
2017-11-17T12:22:41.246Z,10.57
2017-11-17T12:24:34.534Z,10.54
2017-11-17T12:25:34.447Z,10.42
2017-11-17T12:27:27.704Z,10.23
2017-11-17T12:28:27.647Z,10.32
2017-11-17T12:30:20.911Z,10.32
2017-11-17T12:31:20.828Z,10.46
2017-11-17T12:33:14.082Z,10.54
2017-11-17T12:34:14.014Z,10.70
2017-11-17T12:36:07.296Z,10.57
2017-11-17T12:37:07.210Z,10.51
2017-11-17T12:39:00.600Z,10.51
2017-11-17T12:40:00.425Z,10.55
2017-11-17T12:41:53.656Z,10.75
2017-11-17T12:42:53.591Z,10.76
2017-11-17T12:44:46.862Z,10.61
2017-11-17T12:45:46.777Z,10.57
2017-11-17T12:47:40.034Z,10.65
2017-11-17T12:48:39.963Z,10.73
2017-11-17T12:50:33.238Z,10.90
2017-11-17T12:51:33.156Z,10.94
2017-11-17T12:53:26.406Z,11.05
2017-11-17T12:54:26.340Z,10.95
2017-11-17T12:56:19.614Z,10.57
2017-11-17T12:57:19.527Z,10.41
2017-11-17T12:59:12.795Z,10.33
2017-11-17T13:00:12.708Z,10.32
2017-11-17T13:02:05.960Z,10.26
2017-11-17T13:03:05.894Z,10.13
2017-11-17T13:04:59.165Z,10.08
2017-11-17T13:05:59.081Z,10.20
2017-11-17T13:07:52.372Z,10.31
2017-11-17T13:08:52.299Z,10.35
2017-11-17T13:10:45.695Z,10.42
2017-11-17T13:11:45.490Z,10.49
2017-11-17T13:13:38.776Z,10.42
2017-11-17T13:14:38.713Z,10.35
2017-11-17T13:16:31.996Z,10.52
2017-11-17T13:17:31.909Z,10.65
2017-11-17T13:19:25.183Z,10.83
2017-11-17T13:20:25.096Z,11.13
2017-11-17T13:22:18.352Z,11.30
2017-11-17T13:23:18.285Z,11.48
2017-11-17T13:25:11.569Z,11.38
2017-11-17T13:26:11.487Z,11.30
2017-11-17T13:28:04.752Z,11.41
2017-11-17T13:29:04.683Z,11.39
2017-11-17T13:30:57.966Z,11.39
2017-11-17T13:31:57.884Z,11.03
2017-11-17T13:33:51.142Z,10.72
2017-11-17T13:34:51.088Z,10.80
2017-11-17T13:36:44.365Z,10.88
2017-11-17T13:37:44.283Z,10.77
2017-11-17T13:39:37.566Z,10.59
2017-11-17T13:40:37.466Z,10.59
2017-11-17T13:42:30.739Z,10.58
2017-11-17T13:43:30.672Z,10.57
2017-11-17T13:45:23.956Z,10.35
2017-11-17T13:46:23.874Z,10.33
2017-11-17T13:48:17.129Z,10.32
2017-11-17T13:49:17.048Z,10.23
2017-11-17T13:51:10.349Z,10.21
2017-11-17T13:52:10.259Z,10.17
2017-11-17T13:54:03.525Z,10.03
2017-11-17T13:55:03.457Z,10.14
2017-11-17T13:56:56.746Z,10.17
2017-11-17T13:57:56.654Z,10.13
2017-11-17T13:59:49.947Z,10.14
2017-11-17T14:00:49.840Z,10.00
2017-11-17T14:02:43.095Z,10.05
2017-11-17T14:03:43.026Z,9.93
2017-11-17T14:05:36.394Z,9.93
2017-11-17T14:06:36.303Z,9.92
2017-11-17T14:08:29.562Z,9.90
2017-11-17T14:09:29.500Z,9.88
2017-11-17T14:11:22.782Z,9.81
2017-11-17T14:12:22.696Z,9.88
2017-11-17T14:14:15.961Z,9.71
2017-11-17T14:15:15.891Z,9.66
2017-11-17T14:17:09.177Z,9.74
2017-11-17T14:18:09.089Z,9.62
2017-11-17T14:20:02.397Z,9.64
2017-11-17T14:21:02.300Z,9.55
2017-11-17T14:22:55.565Z,9.53
2017-11-17T14:23:55.497Z,9.55
2017-11-17T14:25:48.766Z,9.52
2017-11-17T14:26:48.681Z,9.44
2017-11-17T14:28:41.945Z,9.50
2017-11-17T14:29:41.879Z,9.53
2017-11-17T14:31:35.150Z,9.55
2017-11-17T14:32:35.063Z,9.50
2017-11-17T14:34:28.371Z,9.48
2017-11-17T14:35:28.302Z,9.50
2017-11-17T14:37:21.585Z,9.42
2017-11-17T14:38:21.498Z,9.42
2017-11-17T14:40:14.782Z,9.50
2017-11-17T14:41:14.697Z,9.45
2017-11-17T14:43:07.952Z,9.45
2017-11-17T14:44:07.885Z,9.44
2017-11-17T14:46:01.165Z,9.41
2017-11-17T14:47:01.081Z,9.35
2017-11-17T14:48:54.344Z,9.39
2017-11-17T14:49:54.275Z,9.44
2017-11-17T14:51:47.557Z,9.45
2017-11-17T14:52:47.470Z,9.45
2017-11-17T14:54:40.733Z,9.44
2017-11-17T14:55:40.691Z,9.45
2017-11-17T14:57:33.941Z,9.32
2017-11-17T14:58:33.859Z,9.32
2017-11-17T15:00:27.140Z,9.24
2017-11-17T15:01:27.057Z,9.20
2017-11-17T15:03:20.371Z,9.16
2017-11-17T15:04:20.302Z,9.16
2017-11-17T15:06:14.430Z,9.20
2017-11-17T15:07:14.344Z,9.14
2017-11-17T15:09:07.598Z,9.17
2017-11-17T15:10:07.530Z,9.14
2017-11-17T15:12:00.809Z,9.19
2017-11-17T15:13:00.722Z,9.09
2017-11-17T15:14:53.994Z,9.19
2017-11-17T15:15:53.918Z,9.19
2017-11-17T15:17:47.198Z,9.03
2017-11-17T15:18:47.100Z,9.04
2017-11-17T15:20:40.497Z,9.17
2017-11-17T15:21:40.295Z,9.14
2017-11-17T15:23:33.558Z,9.05
2017-11-17T15:24:33.491Z,9.01
2017-11-17T15:26:26.772Z,8.97
2017-11-17T15:27:26.682Z,8.90
2017-11-17T15:29:19.936Z,8.86
2017-11-17T15:30:19.872Z,8.80
2017-11-17T15:32:13.150Z,8.80
2017-11-17T15:33:13.064Z,8.79
2017-11-17T15:35:06.360Z,8.74
2017-11-17T15:36:06.291Z,8.72
2017-11-17T15:37:59.568Z,8.65
2017-11-17T15:38:59.485Z,8.64
2017-11-17T15:40:52.766Z,8.58
2017-11-17T15:41:52.676Z,8.58
2017-11-17T15:43:45.939Z,8.60
2017-11-17T15:44:45.869Z,8.52
2017-11-17T15:46:39.144Z,8.58
2017-11-17T15:47:39.061Z,8.53
2017-11-17T15:49:32.356Z,8.60
2017-11-17T15:50:32.300Z,8.60
2017-11-17T15:52:25.574Z,8.71
2017-11-17T15:53:25.485Z,8.72
2017-11-17T15:55:18.746Z,8.77
2017-11-17T15:56:18.678Z,8.67
2017-11-17T15:58:11.976Z,8.72
2017-11-17T15:59:11.864Z,8.69
2017-11-17T16:01:05.152Z,8.65
2017-11-17T16:02:05.074Z,8.72
2017-11-17T16:03:58.373Z,8.69
2017-11-17T16:04:58.303Z,8.68
2017-11-17T16:06:51.580Z,8.67
2017-11-17T16:07:51.491Z,8.68
2017-11-17T16:09:44.749Z,8.58
2017-11-17T16:10:44.680Z,8.61
2017-11-17T16:12:37.962Z,8.52
2017-11-17T16:13:37.876Z,8.47
2017-11-17T16:15:31.136Z,8.26
2017-11-17T16:16:31.067Z,8.32
2017-11-17T16:18:24.388Z,8.22
2017-11-17T16:19:24.301Z,8.24
2017-11-17T16:21:17.580Z,8.28
2017-11-17T16:22:17.494Z,8.14
2017-11-17T16:24:10.759Z,8.13
2017-11-17T16:25:10.691Z,8.07
2017-11-17T16:27:03.969Z,8.11
2017-11-17T16:28:03.876Z,8.07
2017-11-17T16:29:57.149Z,7.99
2017-11-17T16:30:57.078Z,7.95
2017-11-17T16:32:50.400Z,7.93
2017-11-17T16:33:50.301Z,7.86
2017-11-17T16:35:43.559Z,7.88
2017-11-17T16:36:43.492Z,7.74
2017-11-17T16:38:36.774Z,7.73
2017-11-17T16:39:36.683Z,7.68
2017-11-17T16:41:29.957Z,7.75
2017-11-17T16:42:29.874Z,7.75
2017-11-17T16:44:23.135Z,7.67
2017-11-17T16:45:23.089Z,7.71
2017-11-17T16:47:16.390Z,7.64
2017-11-17T16:48:16.301Z,7.68
2017-11-17T16:50:09.566Z,7.56
2017-11-17T16:51:09.492Z,7.48
2017-11-17T16:53:02.771Z,7.54
2017-11-17T16:54:02.682Z,7.49
2017-11-17T16:55:55.963Z,7.45
2017-11-17T16:56:55.873Z,7.45
2017-11-17T16:58:49.144Z,7.47
2017-11-17T16:59:49.052Z,7.31
2017-11-17T17:01:42.334Z,7.29
2017-11-17T17:02:42.240Z,7.33
2017-11-17T17:04:35.501Z,7.29
2017-11-17T17:05:35.432Z,7.19
2017-11-17T17:07:28.715Z,7.22
2017-11-17T17:08:28.626Z,7.21
2017-11-17T17:10:21.883Z,7.00
2017-11-17T17:11:21.814Z,7.03
2017-11-17T17:13:15.089Z,6.97
2017-11-17T17:14:15.010Z,6.98
2017-11-17T17:16:08.285Z,6.88
2017-11-17T17:17:08.196Z,6.86
2017-11-17T17:19:01.468Z,6.83
2017-11-17T17:20:01.376Z,6.78
2017-11-17T17:21:54.660Z,6.78
2017-11-17T17:22:54.566Z,6.70
2017-11-17T17:24:47.825Z,6.60
2017-11-17T17:25:47.756Z,6.67
2017-11-17T17:27:41.060Z,6.67
2017-11-17T17:28:40.954Z,6.76
2017-11-17T17:30:34.204Z,6.67
2017-11-17T17:31:34.136Z,6.68
2017-11-17T17:33:27.413Z,6.65
2017-11-17T17:34:27.325Z,6.62
2017-11-17T17:36:20.605Z,6.60
2017-11-17T17:37:20.515Z,6.62
2017-11-17T17:39:13.797Z,6.57
2017-11-17T17:40:13.695Z,6.67
2017-11-17T17:42:06.971Z,6.52
2017-11-17T17:43:06.880Z,6.58
2017-11-17T17:45:00.138Z,6.51
2017-11-17T17:46:00.074Z,6.57
2017-11-17T17:47:53.393Z,6.51
2017-11-17T17:48:53.300Z,6.55
2017-11-17T17:50:46.556Z,6.58
2017-11-17T17:51:46.488Z,6.47
2017-11-17T17:53:39.768Z,6.47
2017-11-17T17:54:39.678Z,6.44
2017-11-17T17:56:32.976Z,6.43
2017-11-17T17:57:32.871Z,6.43
2017-11-17T17:59:26.131Z,6.47
2017-11-17T18:00:26.063Z,6.37
2017-11-17T18:02:19.338Z,6.60
2017-11-17T18:03:19.252Z,6.54
2017-11-17T18:05:12.507Z,6.47
2017-11-17T18:06:12.437Z,6.55
2017-11-17T18:08:05.759Z,6.58
2017-11-17T18:09:05.628Z,6.61
2017-11-17T18:10:58.885Z,6.58
2017-11-17T18:11:58.813Z,6.72
2017-11-17T18:13:52.089Z,6.62
2017-11-17T18:14:52.002Z,6.60
2017-11-17T18:16:45.284Z,6.57
2017-11-17T18:17:45.193Z,6.57
2017-11-17T18:19:38.435Z,6.49
2017-11-17T18:20:38.373Z,6.51
2017-11-17T18:22:31.649Z,6.58
2017-11-17T18:23:31.574Z,6.37
2017-11-17T18:25:24.818Z,6.42
2017-11-17T18:26:24.755Z,6.42
2017-11-17T18:28:18.023Z,6.43
2017-11-17T18:29:17.938Z,6.31
2017-11-17T18:31:11.205Z,6.42
2017-11-17T18:32:11.174Z,6.37
2017-11-17T18:34:04.401Z,6.40
2017-11-17T18:35:04.311Z,6.42
2017-11-17T18:36:57.591Z,6.58
2017-11-17T18:37:57.501Z,6.54
2017-11-17T18:39:50.752Z,6.44
2017-11-17T18:40:50.671Z,6.44
2017-11-17T18:42:43.975Z,6.39
2017-11-17T18:43:43.865Z,6.42
2017-11-17T18:45:37.124Z,6.42
2017-11-17T18:46:37.092Z,6.37
2017-11-17T18:48:30.383Z,6.37
2017-11-17T18:49:30.306Z,6.37
2017-11-17T18:51:23.559Z,6.44
2017-11-17T18:52:23.539Z,6.43
2017-11-17T18:54:16.772Z,6.44
2017-11-17T18:55:16.679Z,6.44
2017-11-17T18:57:10.013Z,6.44
2017-11-17T18:58:09.875Z,6.39
2017-11-17T19:00:03.159Z,6.39
2017-11-17T19:01:03.111Z,6.31